Terminal Aerodrome Forecast
Issued by NWS

Home | Current Version | Previous Version | Text Only | Print | Product List | Glossary On
Versions: 1 2 3 4 5 6 7 8 9 10 11 12 13 14 15 16 17
778
FTUS43 KBIS 210524
TAFMOT
TAF
KMOT 210524Z 2106/2206 09009KT P6SM FEW060 BKN120
     FM211800 09006KT P6SM VCTS SCT045CB BKN200
     FM220000 23007KT P6SM FEW070 SCT200
     FM220400 26006KT P6SM FEW100 FEW250=

USA.gov is the U.S. government's official web portal to all federal, state and local government web resources and services.